To NAV CANADA Home Page Login to a new session Search on AWWS site Feedback and Comments Disclaimer Vers la page française équivalente Tips FAQ What's new on the site To the Forecasts and Observations / NOTAM section To "File a Flight Plan" website Publications and other links Update of the User's profile FIC Telephone Numbers My Weather Data Folder Route Weather Data Regional Weather Data Local Weather Data To the Forecasts and Observations / NOTAM section
Request Generated 04/24/2014 at 14:49:04 UTC . Weather information available at that time is displayed.

METAR/TAF

HAMILTON/ON    

METAR CYHM 241400Z 03008KT 15SM FEW220 07/M10 A3016 RMK CI2 SLP219=
METAR CYHM 241300Z 34005KT 15SM FEW230 06/M09 A3016 RMK CI1 SLP221=
METAR CYHM 241200Z 32005KT 15SM FEW230 03/M06 A3015 RMK CI1 SLP217=

TAF CYHM 241138Z 2412/2512 30005KT P6SM FEW180 SCT230
BECMG 2414/2416 02005KT
FM242200 06007KT P6SM BKN100
BECMG 2510/2512 06015KT
RMK NXT FCST BY 241800Z=
Your time UTC time
Weather data provided by Environment Canada and NAV CANADA